sensor_id;sensor_type;location;lat;lon;timestamp;P1;durP1;ratioP1;P2;durP2;ratioP2
74328;SDS011;62745;51.060;13.786;2024-03-02T00:01:11;42.90;;;23.08;;
74328;SDS011;62745;51.060;13.786;2024-03-02T00:03:38;45.35;;;22.48;;
74328;SDS011;62745;51.060;13.786;2024-03-02T00:06:05;46.88;;;22.17;;
74328;SDS011;62745;51.060;13.786;2024-03-02T00:08:33;41.83;;;22.20;;
74328;SDS011;62745;51.060;13.786;2024-03-02T00:11:00;45.17;;;23.48;;
74328;SDS011;62745;51.060;13.786;2024-03-02T00:13:29;44.85;;;23.50;;
74328;SDS011;62745;51.060;13.786;2024-03-02T00:15:59;45.30;;;22.85;;
74328;SDS011;62745;51.060;13.786;2024-03-02T00:18:27;48.33;;;22.70;;
74328;SDS011;62745;51.060;13.786;2024-03-02T00:20:57;40.85;;;21.88;;
74328;SDS011;62745;51.060;13.786;2024-03-02T00:23:26;44.42;;;23.60;;
74328;SDS011;62745;51.060;13.786;2024-03-02T00:25:55;47.25;;;24.38;;
74328;SDS011;62745;51.060;13.786;2024-03-02T00:28:26;43.90;;;22.55;;
74328;SDS011;62745;51.060;13.786;2024-03-02T00:30:55;43.20;;;21.55;;
74328;SDS011;62745;51.060;13.786;2024-03-02T00:33:25;41.78;;;23.50;;
74328;SDS011;62745;51.060;13.786;2024-03-02T00:35:54;43.90;;;23.23;;
74328;SDS011;62745;51.060;13.786;2024-03-02T00:38:21;43.15;;;25.10;;
74328;SDS011;62745;51.060;13.786;2024-03-02T00:40:48;44.25;;;22.60;;
74328;SDS011;62745;51.060;13.786;2024-03-02T00:46:03;42.65;;;21.20;;
74328;SDS011;62745;51.060;13.786;2024-03-02T00:48:30;45.97;;;21.02;;
74328;SDS011;62745;51.060;13.786;2024-03-02T00:50:57;47.28;;;25.02;;
74328;SDS011;62745;51.060;13.786;2024-03-02T00:53:24;42.75;;;21.45;;
74328;SDS011;62745;51.060;13.786;2024-03-02T00:55:52;37.92;;;21.50;;
74328;SDS011;62745;51.060;13.786;2024-03-02T00:58:19;43.25;;;21.63;;
74328;SDS011;62745;51.060;13.786;2024-03-02T01:00:45;38.28;;;21.90;;
74328;SDS011;62745;51.060;13.786;2024-03-02T01:03:12;38.47;;;20.38;;
74328;SDS011;62745;51.060;13.786;2024-03-02T01:05:42;43.03;;;22.42;;
74328;SDS011;62745;51.060;13.786;2024-03-02T01:08:09;39.78;;;19.67;;
74328;SDS011;62745;51.060;13.786;2024-03-02T01:10:36;38.25;;;21.25;;
74328;SDS011;62745;51.060;13.786;2024-03-02T01:13:02;40.95;;;20.25;;
74328;SDS011;62745;51.060;13.786;2024-03-02T01:15:29;37.88;;;18.83;;
74328;SDS011;62745;51.060;13.786;2024-03-02T01:17:56;39.70;;;20.23;;
74328;SDS011;62745;51.060;13.786;2024-03-02T01:20:22;35.55;;;19.73;;
74328;SDS011;62745;51.060;13.786;2024-03-02T01:22:49;35.58;;;20.48;;
74328;SDS011;62745;51.060;13.786;2024-03-02T01:25:15;38.75;;;20.77;;
74328;SDS011;62745;51.060;13.786;2024-03-02T01:27:41;38.50;;;19.90;;
74328;SDS011;62745;51.060;13.786;2024-03-02T01:30:08;35.95;;;18.38;;
74328;SDS011;62745;51.060;13.786;2024-03-02T01:32:35;35.60;;;19.77;;
74328;SDS011;62745;51.060;13.786;2024-03-02T01:35:05;34.45;;;18.45;;
74328;SDS011;62745;51.060;13.786;2024-03-02T01:37:32;36.58;;;21.08;;
74328;SDS011;62745;51.060;13.786;2024-03-02T01:39:58;34.03;;;20.52;;
74328;SDS011;62745;51.060;13.786;2024-03-02T01:42:25;38.70;;;20.75;;
74328;SDS011;62745;51.060;13.786;2024-03-02T01:44:51;40.63;;;21.42;;
74328;SDS011;62745;51.060;13.786;2024-03-02T01:47:18;39.42;;;21.40;;
74328;SDS011;62745;51.060;13.786;2024-03-02T01:49:44;33.17;;;18.90;;
74328;SDS011;62745;51.060;13.786;2024-03-02T01:52:11;41.80;;;19.58;;
74328;SDS011;62745;51.060;13.786;2024-03-02T01:54:37;40.85;;;19.95;;
74328;SDS011;62745;51.060;13.786;2024-03-02T01:57:04;36.95;;;21.30;;
74328;SDS011;62745;51.060;13.786;2024-03-02T01:59:30;38.67;;;22.08;;
74328;SDS011;62745;51.060;13.786;2024-03-02T02:01:57;40.05;;;19.83;;
74328;SDS011;62745;51.060;13.786;2024-03-02T02:04:23;42.10;;;23.05;;
74328;SDS011;62745;51.060;13.786;2024-03-02T02:09:20;40.10;;;20.92;;
74328;SDS011;62745;51.060;13.786;2024-03-02T02:11:46;38.10;;;21.48;;
74328;SDS011;62745;51.060;13.786;2024-03-02T02:14:13;39.92;;;23.00;;
74328;SDS011;62745;51.060;13.786;2024-03-02T02:16:39;40.30;;;20.70;;
74328;SDS011;62745;51.060;13.786;2024-03-02T02:19:06;37.35;;;21.35;;
74328;SDS011;62745;51.060;13.786;2024-03-02T02:21:32;36.70;;;19.80;;
74328;SDS011;62745;51.060;13.786;2024-03-02T02:23:59;38.13;;;21.58;;
74328;SDS011;62745;51.060;13.786;2024-03-02T02:26:25;38.17;;;20.50;;
74328;SDS011;62745;51.060;13.786;2024-03-02T02:28:52;39.40;;;21.98;;
74328;SDS011;62745;51.060;13.786;2024-03-02T02:31:18;43.05;;;23.38;;
74328;SDS011;62745;51.060;13.786;2024-03-02T02:33:45;44.67;;;22.08;;
74328;SDS011;62745;51.060;13.786;2024-03-02T02:36:11;45.17;;;21.30;;
74328;SDS011;62745;51.060;13.786;2024-03-02T02:38:39;46.92;;;22.25;;
74328;SDS011;62745;51.060;13.786;2024-03-02T02:41:08;47.92;;;22.23;;
74328;SDS011;62745;51.060;13.786;2024-03-02T02:43:35;49.17;;;24.38;;
74328;SDS011;62745;51.060;13.786;2024-03-02T02:46:01;48.67;;;23.02;;
74328;SDS011;62745;51.060;13.786;2024-03-02T02:48:28;49.53;;;22.67;;
74328;SDS011;62745;51.060;13.786;2024-03-02T02:50:54;47.13;;;22.38;;
74328;SDS011;62745;51.060;13.786;2024-03-02T02:53:21;47.97;;;23.67;;
74328;SDS011;62745;51.060;13.786;2024-03-02T02:55:47;46.65;;;23.40;;
74328;SDS011;62745;51.060;13.786;2024-03-02T02:58:14;46.97;;;22.60;;
74328;SDS011;62745;51.060;13.786;2024-03-02T03:00:41;46.28;;;22.35;;
74328;SDS011;62745;51.060;13.786;2024-03-02T03:03:07;47.45;;;22.10;;
74328;SDS011;62745;51.060;13.786;2024-03-02T03:05:34;48.97;;;23.95;;
74328;SDS011;62745;51.060;13.786;2024-03-02T03:08:00;52.72;;;22.45;;
74328;SDS011;62745;51.060;13.786;2024-03-02T03:10:27;50.85;;;23.98;;
74328;SDS011;62745;51.060;13.786;2024-03-02T03:12:54;53.58;;;22.73;;
74328;SDS011;62745;51.060;13.786;2024-03-02T03:15:22;52.47;;;25.50;;
74328;SDS011;62745;51.060;13.786;2024-03-02T03:17:49;52.33;;;22.33;;
74328;SDS011;62745;51.060;13.786;2024-03-02T03:20:17;57.10;;;24.67;;
74328;SDS011;62745;51.060;13.786;2024-03-02T03:22:43;53.03;;;23.08;;
74328;SDS011;62745;51.060;13.786;2024-03-02T03:25:10;51.33;;;25.77;;
74328;SDS011;62745;51.060;13.786;2024-03-02T03:27:36;56.58;;;24.77;;
74328;SDS011;62745;51.060;13.786;2024-03-02T03:30:03;57.80;;;24.35;;
74328;SDS011;62745;51.060;13.786;2024-03-02T03:32:33;55.65;;;24.70;;
74328;SDS011;62745;51.060;13.786;2024-03-02T03:34:59;52.72;;;24.15;;
74328;SDS011;62745;51.060;13.786;2024-03-02T03:37:26;53.95;;;24.15;;
74328;SDS011;62745;51.060;13.786;2024-03-02T03:39:59;51.25;;;22.95;;
74328;SDS011;62745;51.060;13.786;2024-03-02T03:42:27;58.08;;;23.92;;
74328;SDS011;62745;51.060;13.786;2024-03-02T03:44:53;53.35;;;23.92;;
74328;SDS011;62745;51.060;13.786;2024-03-02T03:47:20;55.35;;;23.20;;
74328;SDS011;62745;51.060;13.786;2024-03-02T03:49:46;51.22;;;22.67;;
74328;SDS011;62745;51.060;13.786;2024-03-02T03:52:13;55.60;;;24.75;;
74328;SDS011;62745;51.060;13.786;2024-03-02T03:54:39;54.53;;;25.23;;
74328;SDS011;62745;51.060;13.786;2024-03-02T03:57:06;56.25;;;23.27;;
74328;SDS011;62745;51.060;13.786;2024-03-02T03:59:33;53.75;;;22.60;;
74328;SDS011;62745;51.060;13.786;2024-03-02T04:01:59;54.67;;;22.42;;
74328;SDS011;62745;51.060;13.786;2024-03-02T04:04:26;57.20;;;24.83;;
74328;SDS011;62745;51.060;13.786;2024-03-02T04:06:52;55.00;;;25.27;;
74328;SDS011;62745;51.060;13.786;2024-03-02T04:09:18;59.72;;;26.25;;
74328;SDS011;62745;51.060;13.786;2024-03-02T04:11:45;60.45;;;26.60;;
74328;SDS011;62745;51.060;13.786;2024-03-02T04:14:12;56.45;;;23.33;;
74328;SDS011;62745;51.060;13.786;2024-03-02T04:16:38;57.08;;;25.20;;
74328;SDS011;62745;51.060;13.786;2024-03-02T04:19:05;54.60;;;24.60;;
74328;SDS011;62745;51.060;13.786;2024-03-02T04:21:31;57.65;;;26.13;;
74328;SDS011;62745;51.060;13.786;2024-03-02T04:23:58;56.65;;;23.92;;
74328;SDS011;62745;51.060;13.786;2024-03-02T04:26:26;58.30;;;25.83;;
74328;SDS011;62745;51.060;13.786;2024-03-02T04:28:53;56.30;;;24.30;;
74328;SDS011;62745;51.060;13.786;2024-03-02T04:31:22;58.40;;;23.45;;
74328;SDS011;62745;51.060;13.786;2024-03-02T04:33:49;54.05;;;24.38;;
74328;SDS011;62745;51.060;13.786;2024-03-02T04:36:16;53.58;;;22.52;;
74328;SDS011;62745;51.060;13.786;2024-03-02T04:38:42;54.45;;;22.40;;
74328;SDS011;62745;51.060;13.786;2024-03-02T04:41:09;56.50;;;23.33;;
74328;SDS011;62745;51.060;13.786;2024-03-02T04:43:35;54.70;;;25.27;;
74328;SDS011;62745;51.060;13.786;2024-03-02T04:46:02;55.13;;;22.38;;
74328;SDS011;62745;51.060;13.786;2024-03-02T04:48:28;53.17;;;23.15;;
74328;SDS011;62745;51.060;13.786;2024-03-02T04:50:55;49.45;;;23.13;;
74328;SDS011;62745;51.060;13.786;2024-03-02T04:53:21;54.33;;;21.70;;
74328;SDS011;62745;51.060;13.786;2024-03-02T04:55:48;57.50;;;23.70;;
74328;SDS011;62745;51.060;13.786;2024-03-02T04:58:33;51.20;;;20.83;;
74328;SDS011;62745;51.060;13.786;2024-03-02T05:00:59;57.13;;;24.17;;
74328;SDS011;62745;51.060;13.786;2024-03-02T05:03:26;53.35;;;22.98;;
74328;SDS011;62745;51.060;13.786;2024-03-02T05:05:52;51.75;;;22.65;;
74328;SDS011;62745;51.060;13.786;2024-03-02T05:08:19;51.53;;;21.35;;
74328;SDS011;62745;51.060;13.786;2024-03-02T05:10:45;49.65;;;22.17;;
74328;SDS011;62745;51.060;13.786;2024-03-02T05:13:12;51.10;;;23.08;;
74328;SDS011;62745;51.060;13.786;2024-03-02T05:15:38;57.25;;;24.15;;
74328;SDS011;62745;51.060;13.786;2024-03-02T05:18:05;54.55;;;23.08;;
74328;SDS011;62745;51.060;13.786;2024-03-02T05:20:31;49.22;;;21.45;;
74328;SDS011;62745;51.060;13.786;2024-03-02T05:22:58;47.83;;;22.73;;
74328;SDS011;62745;51.060;13.786;2024-03-02T05:25:24;56.13;;;23.48;;
74328;SDS011;62745;51.060;13.786;2024-03-02T05:27:51;53.95;;;23.75;;
74328;SDS011;62745;51.060;13.786;2024-03-02T05:30:18;51.95;;;23.73;;
74328;SDS011;62745;51.060;13.786;2024-03-02T05:32:44;51.00;;;22.80;;
74328;SDS011;62745;51.060;13.786;2024-03-02T05:35:11;53.85;;;24.33;;
74328;SDS011;62745;51.060;13.786;2024-03-02T05:37:39;50.53;;;21.33;;
74328;SDS011;62745;51.060;13.786;2024-03-02T05:40:06;45.00;;;18.63;;
74328;SDS011;62745;51.060;13.786;2024-03-02T05:42:33;51.30;;;22.30;;
74328;SDS011;62745;51.060;13.786;2024-03-02T05:45:00;45.90;;;21.48;;
74328;SDS011;62745;51.060;13.786;2024-03-02T05:47:27;45.50;;;21.17;;
74328;SDS011;62745;51.060;13.786;2024-03-02T05:49:54;44.63;;;19.85;;
74328;SDS011;62745;51.060;13.786;2024-03-02T05:52:20;44.22;;;20.92;;
74328;SDS011;62745;51.060;13.786;2024-03-02T05:54:47;43.10;;;19.45;;
74328;SDS011;62745;51.060;13.786;2024-03-02T05:57:15;43.10;;;20.67;;
74328;SDS011;62745;51.060;13.786;2024-03-02T06:00:00;45.88;;;19.25;;
74328;SDS011;62745;51.060;13.786;2024-03-02T06:02:26;44.17;;;17.90;;
74328;SDS011;62745;51.060;13.786;2024-03-02T06:04:54;43.58;;;21.42;;
74328;SDS011;62745;51.060;13.786;2024-03-02T06:07:22;50.42;;;22.48;;
74328;SDS011;62745;51.060;13.786;2024-03-02T06:09:49;45.65;;;21.27;;
74328;SDS011;62745;51.060;13.786;2024-03-02T06:12:17;52.05;;;22.17;;
74328;SDS011;62745;51.060;13.786;2024-03-02T06:14:44;48.58;;;21.10;;
74328;SDS011;62745;51.060;13.786;2024-03-02T06:17:11;43.38;;;20.40;;
74328;SDS011;62745;51.060;13.786;2024-03-02T06:19:37;46.50;;;19.45;;
74328;SDS011;62745;51.060;13.786;2024-03-02T06:22:04;48.65;;;20.55;;
74328;SDS011;62745;51.060;13.786;2024-03-02T06:24:31;47.47;;;22.50;;
74328;SDS011;62745;51.060;13.786;2024-03-02T06:26:58;44.30;;;20.02;;
74328;SDS011;62745;51.060;13.786;2024-03-02T06:29:24;50.80;;;22.02;;
74328;SDS011;62745;51.060;13.786;2024-03-02T06:31:51;48.53;;;21.80;;
74328;SDS011;62745;51.060;13.786;2024-03-02T06:34:20;47.33;;;21.75;;
74328;SDS011;62745;51.060;13.786;2024-03-02T06:36:46;43.63;;;19.30;;
74328;SDS011;62745;51.060;13.786;2024-03-02T06:39:14;46.80;;;22.33;;
74328;SDS011;62745;51.060;13.786;2024-03-02T06:41:40;46.05;;;22.35;;
74328;SDS011;62745;51.060;13.786;2024-03-02T06:44:08;44.25;;;19.30;;
74328;SDS011;62745;51.060;13.786;2024-03-02T06:46:35;42.20;;;19.75;;
74328;SDS011;62745;51.060;13.786;2024-03-02T06:49:01;41.03;;;19.42;;
74328;SDS011;62745;51.060;13.786;2024-03-02T06:51:29;47.13;;;19.35;;
74328;SDS011;62745;51.060;13.786;2024-03-02T06:53:55;43.72;;;19.80;;
74328;SDS011;62745;51.060;13.786;2024-03-02T06:56:22;50.10;;;20.38;;
74328;SDS011;62745;51.060;13.786;2024-03-02T06:58:48;45.25;;;20.20;;
74328;SDS011;62745;51.060;13.786;2024-03-02T07:01:15;43.60;;;19.77;;
74328;SDS011;62745;51.060;13.786;2024-03-02T07:03:42;45.97;;;20.17;;
74328;SDS011;62745;51.060;13.786;2024-03-02T07:06:09;43.53;;;20.98;;
74328;SDS011;62745;51.060;13.786;2024-03-02T07:08:35;45.50;;;20.67;;
74328;SDS011;62745;51.060;13.786;2024-03-02T07:11:02;45.03;;;19.63;;
74328;SDS011;62745;51.060;13.786;2024-03-02T07:13:29;46.38;;;20.92;;
74328;SDS011;62745;51.060;13.786;2024-03-02T07:15:55;44.35;;;20.92;;
74328;SDS011;62745;51.060;13.786;2024-03-02T07:18:37;42.83;;;20.85;;
74328;SDS011;62745;51.060;13.786;2024-03-02T07:21:07;49.10;;;20.67;;
74328;SDS011;62745;51.060;13.786;2024-03-02T07:23:34;48.00;;;20.48;;
74328;SDS011;62745;51.060;13.786;2024-03-02T07:26:00;44.80;;;19.77;;
74328;SDS011;62745;51.060;13.786;2024-03-02T07:31:01;44.97;;;20.55;;
74328;SDS011;62745;51.060;13.786;2024-03-02T07:33:29;45.90;;;19.60;;
74328;SDS011;62745;51.060;13.786;2024-03-02T07:35:55;54.28;;;23.77;;
74328;SDS011;62745;51.060;13.786;2024-03-02T07:38:23;46.50;;;20.42;;
74328;SDS011;62745;51.060;13.786;2024-03-02T07:40:49;54.55;;;20.85;;
74328;SDS011;62745;51.060;13.786;2024-03-02T07:43:19;50.78;;;21.60;;
74328;SDS011;62745;51.060;13.786;2024-03-02T07:45:46;48.72;;;19.45;;
74328;SDS011;62745;51.060;13.786;2024-03-02T07:48:13;49.78;;;20.70;;
74328;SDS011;62745;51.060;13.786;2024-03-02T07:50:40;49.78;;;22.05;;
74328;SDS011;62745;51.060;13.786;2024-03-02T07:53:07;49.67;;;21.27;;
74328;SDS011;62745;51.060;13.786;2024-03-02T07:55:34;49.85;;;21.52;;
74328;SDS011;62745;51.060;13.786;2024-03-02T07:58:01;51.22;;;20.58;;
74328;SDS011;62745;51.060;13.786;2024-03-02T08:00:28;52.45;;;22.13;;
74328;SDS011;62745;51.060;13.786;2024-03-02T08:02:55;51.42;;;21.35;;
74328;SDS011;62745;51.060;13.786;2024-03-02T08:05:22;45.00;;;19.17;;
74328;SDS011;62745;51.060;13.786;2024-03-02T08:07:49;46.83;;;19.73;;
74328;SDS011;62745;51.060;13.786;2024-03-02T08:10:19;47.17;;;19.13;;
74328;SDS011;62745;51.060;13.786;2024-03-02T08:12:45;45.67;;;18.92;;
74328;SDS011;62745;51.060;13.786;2024-03-02T08:15:12;47.53;;;18.30;;
74328;SDS011;62745;51.060;13.786;2024-03-02T08:17:39;40.25;;;17.88;;
74328;SDS011;62745;51.060;13.786;2024-03-02T08:20:14;37.55;;;15.95;;
74328;SDS011;62745;51.060;13.786;2024-03-02T08:22:41;36.95;;;16.25;;
74328;SDS011;62745;51.060;13.786;2024-03-02T08:25:07;36.15;;;16.88;;
74328;SDS011;62745;51.060;13.786;2024-03-02T08:27:34;35.40;;;15.77;;
74328;SDS011;62745;51.060;13.786;2024-03-02T08:30:01;34.88;;;15.80;;
74328;SDS011;62745;51.060;13.786;2024-03-02T08:32:32;33.70;;;15.77;;
74328;SDS011;62745;51.060;13.786;2024-03-02T08:34:59;31.08;;;13.52;;
74328;SDS011;62745;51.060;13.786;2024-03-02T08:37:26;28.70;;;12.73;;
74328;SDS011;62745;51.060;13.786;2024-03-02T08:39:52;30.58;;;12.98;;
74328;SDS011;62745;51.060;13.786;2024-03-02T08:42:19;24.33;;;12.70;;
74328;SDS011;62745;51.060;13.786;2024-03-02T08:44:46;27.77;;;10.48;;
74328;SDS011;62745;51.060;13.786;2024-03-02T08:47:12;23.00;;;10.18;;
74328;SDS011;62745;51.060;13.786;2024-03-02T08:49:39;27.35;;;11.60;;
74328;SDS011;62745;51.060;13.786;2024-03-02T08:52:06;24.08;;;9.63;;
74328;SDS011;62745;51.060;13.786;2024-03-02T08:54:32;20.60;;;9.95;;
74328;SDS011;62745;51.060;13.786;2024-03-02T08:57:00;21.67;;;9.55;;
74328;SDS011;62745;51.060;13.786;2024-03-02T08:59:27;25.67;;;12.57;;
74328;SDS011;62745;51.060;13.786;2024-03-02T09:01:54;25.50;;;11.32;;
74328;SDS011;62745;51.060;13.786;2024-03-02T09:04:20;25.15;;;12.02;;
74328;SDS011;62745;51.060;13.786;2024-03-02T09:06:51;25.63;;;11.40;;
74328;SDS011;62745;51.060;13.786;2024-03-02T09:09:18;23.88;;;10.93;;
74328;SDS011;62745;51.060;13.786;2024-03-02T09:11:45;28.02;;;11.63;;
74328;SDS011;62745;51.060;13.786;2024-03-02T09:14:13;26.00;;;11.93;;
74328;SDS011;62745;51.060;13.786;2024-03-02T09:16:41;23.25;;;11.27;;
74328;SDS011;62745;51.060;13.786;2024-03-02T09:19:08;25.58;;;11.63;;
74328;SDS011;62745;51.060;13.786;2024-03-02T09:21:36;24.95;;;12.00;;
74328;SDS011;62745;51.060;13.786;2024-03-02T09:24:03;28.90;;;12.63;;
74328;SDS011;62745;51.060;13.786;2024-03-02T09:26:30;32.10;;;13.75;;
74328;SDS011;62745;51.060;13.786;2024-03-02T09:28:56;28.33;;;11.77;;
74328;SDS011;62745;51.060;13.786;2024-03-02T09:31:23;24.45;;;10.73;;
74328;SDS011;62745;51.060;13.786;2024-03-02T09:33:50;27.63;;;13.43;;
74328;SDS011;62745;51.060;13.786;2024-03-02T09:36:20;28.55;;;12.50;;
74328;SDS011;62745;51.060;13.786;2024-03-02T09:38:47;30.75;;;12.43;;
74328;SDS011;62745;51.060;13.786;2024-03-02T09:41:14;28.38;;;11.90;;
74328;SDS011;62745;51.060;13.786;2024-03-02T09:43:41;28.80;;;12.13;;
74328;SDS011;62745;51.060;13.786;2024-03-02T09:46:11;27.65;;;12.23;;
74328;SDS011;62745;51.060;13.786;2024-03-02T09:48:38;28.17;;;13.30;;
74328;SDS011;62745;51.060;13.786;2024-03-02T09:51:05;28.45;;;12.90;;
74328;SDS011;62745;51.060;13.786;2024-03-02T09:53:32;31.20;;;14.43;;
74328;SDS011;62745;51.060;13.786;2024-03-02T09:56:00;27.50;;;13.52;;
74328;SDS011;62745;51.060;13.786;2024-03-02T09:58:27;34.95;;;15.77;;
74328;SDS011;62745;51.060;13.786;2024-03-02T10:00:53;33.53;;;15.73;;
74328;SDS011;62745;51.060;13.786;2024-03-02T10:03:20;34.30;;;14.88;;
74328;SDS011;62745;51.060;13.786;2024-03-02T10:05:49;32.03;;;16.27;;
74328;SDS011;62745;51.060;13.786;2024-03-02T10:08:16;34.80;;;15.43;;
74328;SDS011;62745;51.060;13.786;2024-03-02T10:10:43;36.60;;;15.65;;
74328;SDS011;62745;51.060;13.786;2024-03-02T10:13:11;31.60;;;14.15;;
74328;SDS011;62745;51.060;13.786;2024-03-02T10:15:39;34.58;;;13.85;;
74328;SDS011;62745;51.060;13.786;2024-03-02T10:18:09;32.03;;;14.38;;
74328;SDS011;62745;51.060;13.786;2024-03-02T10:20:38;34.10;;;15.13;;
74328;SDS011;62745;51.060;13.786;2024-03-02T10:23:12;32.95;;;15.43;;
74328;SDS011;62745;51.060;13.786;2024-03-02T10:25:40;33.55;;;13.50;;
74328;SDS011;62745;51.060;13.786;2024-03-02T10:28:19;38.58;;;15.82;;
74328;SDS011;62745;51.060;13.786;2024-03-02T10:30:47;33.30;;;15.65;;
74328;SDS011;62745;51.060;13.786;2024-03-02T10:33:14;35.13;;;15.60;;
74328;SDS011;62745;51.060;13.786;2024-03-02T10:35:41;34.92;;;15.43;;
74328;SDS011;62745;51.060;13.786;2024-03-02T10:38:07;32.47;;;13.88;;
74328;SDS011;62745;51.060;13.786;2024-03-02T10:40:33;31.30;;;13.85;;
74328;SDS011;62745;51.060;13.786;2024-03-02T10:43:01;29.38;;;11.88;;
74328;SDS011;62745;51.060;13.786;2024-03-02T10:45:31;30.17;;;12.50;;
74328;SDS011;62745;51.060;13.786;2024-03-02T10:47:58;31.17;;;13.63;;
74328;SDS011;62745;51.060;13.786;2024-03-02T10:50:25;30.33;;;12.18;;
74328;SDS011;62745;51.060;13.786;2024-03-02T10:52:52;28.83;;;13.95;;
74328;SDS011;62745;51.060;13.786;2024-03-02T10:55:18;28.90;;;12.35;;
74328;SDS011;62745;51.060;13.786;2024-03-02T10:57:50;28.73;;;11.85;;
74328;SDS011;62745;51.060;13.786;2024-03-02T11:00:17;31.02;;;12.30;;
74328;SDS011;62745;51.060;13.786;2024-03-02T11:02:50;21.38;;;9.75;;
74328;SDS011;62745;51.060;13.786;2024-03-02T11:05:21;19.85;;;9.70;;
74328;SDS011;62745;51.060;13.786;2024-03-02T11:08:02;19.55;;;10.02;;
74328;SDS011;62745;51.060;13.786;2024-03-02T11:10:57;19.15;;;9.48;;
74328;SDS011;62745;51.060;13.786;2024-03-02T11:13:33;20.75;;;10.65;;
74328;SDS011;62745;51.060;13.786;2024-03-02T11:16:05;17.58;;;7.75;;
74328;SDS011;62745;51.060;13.786;2024-03-02T11:18:36;17.15;;;8.65;;
74328;SDS011;62745;51.060;13.786;2024-03-02T11:21:03;18.67;;;8.40;;
74328;SDS011;62745;51.060;13.786;2024-03-02T11:23:34;17.05;;;7.82;;
74328;SDS011;62745;51.060;13.786;2024-03-02T11:26:17;17.45;;;8.05;;
74328;SDS011;62745;51.060;13.786;2024-03-02T11:28:47;18.00;;;9.02;;
74328;SDS011;62745;51.060;13.786;2024-03-02T11:31:14;17.67;;;8.05;;
74328;SDS011;62745;51.060;13.786;2024-03-02T11:33:40;16.65;;;8.35;;
74328;SDS011;62745;51.060;13.786;2024-03-02T11:36:07;16.38;;;7.63;;
74328;SDS011;62745;51.060;13.786;2024-03-02T11:38:37;16.45;;;7.95;;
74328;SDS011;62745;51.060;13.786;2024-03-02T11:41:07;14.52;;;6.55;;
74328;SDS011;62745;51.060;13.786;2024-03-02T11:43:38;16.73;;;7.20;;
74328;SDS011;62745;51.060;13.786;2024-03-02T11:48:34;14.43;;;5.68;;
74328;SDS011;62745;51.060;13.786;2024-03-02T11:51:03;12.18;;;5.38;;
74328;SDS011;62745;51.060;13.786;2024-03-02T11:53:30;14.88;;;6.00;;
74328;SDS011;62745;51.060;13.786;2024-03-02T11:56:01;12.77;;;6.13;;
74328;SDS011;62745;51.060;13.786;2024-03-02T11:58:28;19.17;;;7.97;;
74328;SDS011;62745;51.060;13.786;2024-03-02T12:00:55;11.88;;;5.95;;
74328;SDS011;62745;51.060;13.786;2024-03-02T12:03:23;14.65;;;7.68;;
74328;SDS011;62745;51.060;13.786;2024-03-02T12:05:52;17.50;;;8.30;;
74328;SDS011;62745;51.060;13.786;2024-03-02T12:08:19;16.83;;;7.60;;
74328;SDS011;62745;51.060;13.786;2024-03-02T12:10:57;17.55;;;6.75;;
74328;SDS011;62745;51.060;13.786;2024-03-02T12:13:30;18.67;;;8.98;;
74328;SDS011;62745;51.060;13.786;2024-03-02T12:15:57;14.70;;;7.40;;
74328;SDS011;62745;51.060;13.786;2024-03-02T12:18:24;18.35;;;8.68;;
74328;SDS011;62745;51.060;13.786;2024-03-02T12:20:52;20.60;;;8.18;;
74328;SDS011;62745;51.060;13.786;2024-03-02T12:23:19;21.17;;;7.55;;
74328;SDS011;62745;51.060;13.786;2024-03-02T12:25:46;17.88;;;7.07;;
74328;SDS011;62745;51.060;13.786;2024-03-02T12:28:12;21.40;;;8.32;;
74328;SDS011;62745;51.060;13.786;2024-03-02T12:30:39;16.90;;;7.75;;
74328;SDS011;62745;51.060;13.786;2024-03-02T12:33:06;19.40;;;8.30;;
74328;SDS011;62745;51.060;13.786;2024-03-02T12:35:32;19.92;;;8.25;;
74328;SDS011;62745;51.060;13.786;2024-03-02T12:37:59;18.70;;;8.30;;
74328;SDS011;62745;51.060;13.786;2024-03-02T12:40:25;17.60;;;7.95;;
74328;SDS011;62745;51.060;13.786;2024-03-02T12:42:52;20.83;;;7.75;;
74328;SDS011;62745;51.060;13.786;2024-03-02T12:45:18;17.73;;;7.38;;
74328;SDS011;62745;51.060;13.786;2024-03-02T12:47:51;19.63;;;8.07;;
74328;SDS011;62745;51.060;13.786;2024-03-02T12:50:18;17.10;;;8.07;;
74328;SDS011;62745;51.060;13.786;2024-03-02T12:52:50;14.80;;;7.18;;
74328;SDS011;62745;51.060;13.786;2024-03-02T12:55:19;16.33;;;7.07;;
74328;SDS011;62745;51.060;13.786;2024-03-02T12:57:46;17.23;;;7.32;;
74328;SDS011;62745;51.060;13.786;2024-03-02T13:00:15;18.67;;;8.13;;
74328;SDS011;62745;51.060;13.786;2024-03-02T13:02:45;19.40;;;8.23;;
74328;SDS011;62745;51.060;13.786;2024-03-02T13:05:12;18.92;;;8.10;;
74328;SDS011;62745;51.060;13.786;2024-03-02T13:07:39;15.23;;;8.00;;
74328;SDS011;62745;51.060;13.786;2024-03-02T13:10:07;15.45;;;8.00;;
74328;SDS011;62745;51.060;13.786;2024-03-02T13:12:35;18.20;;;8.95;;
74328;SDS011;62745;51.060;13.786;2024-03-02T13:15:03;18.75;;;8.23;;
74328;SDS011;62745;51.060;13.786;2024-03-02T13:17:34;18.55;;;8.70;;
74328;SDS011;62745;51.060;13.786;2024-03-02T13:20:04;16.67;;;7.68;;
74328;SDS011;62745;51.060;13.786;2024-03-02T13:22:34;15.80;;;7.82;;
74328;SDS011;62745;51.060;13.786;2024-03-02T13:25:01;15.90;;;8.55;;
74328;SDS011;62745;51.060;13.786;2024-03-02T13:27:31;16.58;;;8.18;;
74328;SDS011;62745;51.060;13.786;2024-03-02T13:29:58;16.63;;;8.77;;
74328;SDS011;62745;51.060;13.786;2024-03-02T13:32:25;17.55;;;8.05;;
74328;SDS011;62745;51.060;13.786;2024-03-02T13:34:52;19.25;;;9.02;;
74328;SDS011;62745;51.060;13.786;2024-03-02T13:37:19;16.40;;;8.50;;
74328;SDS011;62745;51.060;13.786;2024-03-02T13:39:46;15.52;;;8.20;;
74328;SDS011;62745;51.060;13.786;2024-03-02T13:42:13;16.33;;;8.57;;
74328;SDS011;62745;51.060;13.786;2024-03-02T13:44:44;15.70;;;7.25;;
74328;SDS011;62745;51.060;13.786;2024-03-02T13:47:13;12.90;;;7.18;;
74328;SDS011;62745;51.060;13.786;2024-03-02T13:49:40;14.85;;;7.55;;
74328;SDS011;62745;51.060;13.786;2024-03-02T13:52:10;14.10;;;8.25;;
74328;SDS011;62745;51.060;13.786;2024-03-02T13:54:39;12.15;;;6.63;;
74328;SDS011;62745;51.060;13.786;2024-03-02T13:57:08;14.95;;;7.30;;
74328;SDS011;62745;51.060;13.786;2024-03-02T13:59:36;14.95;;;7.18;;
74328;SDS011;62745;51.060;13.786;2024-03-02T14:02:07;13.55;;;6.65;;
74328;SDS011;62745;51.060;13.786;2024-03-02T14:04:35;16.55;;;7.78;;
74328;SDS011;62745;51.060;13.786;2024-03-02T14:07:02;12.85;;;6.60;;
74328;SDS011;62745;51.060;13.786;2024-03-02T14:09:29;13.23;;;6.22;;
74328;SDS011;62745;51.060;13.786;2024-03-02T14:11:56;12.90;;;6.20;;
74328;SDS011;62745;51.060;13.786;2024-03-02T14:14:23;14.45;;;6.68;;
74328;SDS011;62745;51.060;13.786;2024-03-02T14:16:50;16.05;;;7.28;;
74328;SDS011;62745;51.060;13.786;2024-03-02T14:19:17;14.57;;;7.68;;
74328;SDS011;62745;51.060;13.786;2024-03-02T14:21:43;15.15;;;7.28;;
74328;SDS011;62745;51.060;13.786;2024-03-02T14:24:10;12.82;;;6.88;;